createdAt,value
2018-07-28T00:01:25.155Z,10.03
2018-07-28T00:03:53.821Z,9.13
2018-07-28T00:06:22.438Z,11.88
2018-07-28T00:09:00.381Z,9.08
2018-07-28T00:11:29.041Z,8.93
2018-07-28T00:13:57.701Z,10.00
2018-07-28T00:16:27.250Z,9.28
2018-07-28T00:19:05.713Z,9.05
2018-07-28T00:21:34.332Z,9.73
2018-07-28T00:24:02.822Z,8.78
2018-07-28T00:26:31.396Z,10.00
2018-07-28T00:28:59.951Z,9.70
2018-07-28T00:31:29.350Z,11.20
2018-07-28T00:33:58.164Z,9.78
2018-07-28T00:36:26.856Z,10.08
2018-07-28T00:39:00.562Z,9.78
2018-07-28T00:41:30.482Z,9.10
2018-07-28T00:43:59.239Z,8.70
2018-07-28T00:46:27.716Z,8.73
2018-07-28T00:49:01.204Z,9.03
2018-07-28T00:51:29.758Z,9.25
2018-07-28T00:53:58.180Z,7.40
2018-07-28T00:56:26.591Z,8.75
2018-07-28T01:01:47.715Z,9.10
2018-07-28T01:04:16.192Z,9.10
2018-07-28T01:06:45.400Z,9.28
2018-07-28T01:09:13.952Z,8.43
2018-07-28T01:11:42.917Z,8.23
2018-07-28T01:14:12.009Z,10.63
2018-07-28T01:16:40.789Z,9.80
2018-07-28T01:19:18.826Z,9.33
2018-07-28T01:21:49.046Z,9.28
2018-07-28T01:24:18.456Z,11.12
2018-07-28T01:26:47.271Z,9.35
2018-07-28T01:29:17.357Z,8.78
2018-07-28T01:31:46.997Z,11.38
2018-07-28T01:34:15.522Z,10.15
2018-07-28T01:36:43.930Z,10.05
2018-07-28T01:39:14.590Z,10.58
2018-07-28T01:41:44.383Z,9.78
2018-07-28T01:44:12.891Z,9.18
2018-07-28T01:46:41.661Z,9.80
2018-07-28T01:49:10.393Z,9.75
2018-07-28T01:51:38.959Z,8.90
2018-07-28T01:54:07.542Z,11.18
2018-07-28T01:56:36.013Z,9.60
2018-07-28T01:59:09.499Z,8.58
2018-07-28T02:01:38.115Z,9.95
2018-07-28T02:04:06.563Z,9.98
2018-07-28T02:06:36.661Z,9.18
2018-07-28T02:09:08.473Z,9.75
2018-07-28T02:11:37.903Z,9.28
2018-07-28T02:14:06.839Z,9.83
2018-07-28T02:16:36.848Z,10.28
2018-07-28T02:19:11.613Z,9.05
2018-07-28T02:21:40.081Z,8.68
2018-07-28T02:24:08.639Z,9.03
2018-07-28T02:26:39.301Z,10.15
2018-07-28T02:29:09.265Z,9.15
2018-07-28T02:31:37.753Z,10.18
2018-07-28T02:34:06.296Z,9.83
2018-07-28T02:36:34.753Z,8.58
2018-07-28T02:39:03.363Z,9.85
2018-07-28T02:41:32.167Z,9.63
2018-07-28T02:44:01.099Z,9.38
2018-07-28T02:46:30.057Z,10.18
2018-07-28T02:48:58.701Z,10.23
2018-07-28T02:51:28.173Z,11.00
2018-07-28T02:53:56.871Z,10.80
2018-07-28T02:56:26.059Z,11.18
2018-07-28T02:58:55.097Z,10.48
2018-07-28T03:01:24.745Z,10.20
2018-07-28T03:03:53.636Z,10.90
2018-07-28T03:06:22.628Z,10.90
2018-07-28T03:08:51.842Z,11.63
2018-07-28T03:11:22.332Z,11.65
2018-07-28T03:13:51.407Z,11.75
2018-07-28T03:16:20.535Z,12.10
2018-07-28T03:18:49.628Z,11.80
2018-07-28T03:21:18.775Z,11.30
2018-07-28T03:23:47.873Z,12.18
2018-07-28T03:26:16.699Z,11.20
2018-07-28T03:28:45.715Z,11.48
2018-07-28T03:31:14.629Z,10.82
2018-07-28T03:33:43.617Z,10.63
2018-07-28T03:36:12.869Z,11.45
2018-07-28T03:38:42.335Z,11.65
2018-07-28T03:41:11.699Z,11.38
2018-07-28T03:43:40.772Z,11.18
2018-07-28T03:46:09.905Z,11.43
2018-07-28T03:48:39.113Z,11.33
2018-07-28T03:51:08.341Z,10.63
2018-07-28T03:53:37.643Z,11.33
2018-07-28T03:56:07.141Z,10.90
2018-07-28T03:58:36.063Z,10.75
2018-07-28T04:01:05.124Z,11.00
2018-07-28T04:03:34.286Z,11.60
2018-07-28T04:06:03.363Z,10.78
2018-07-28T04:08:32.453Z,11.63
2018-07-28T04:11:01.340Z,11.95
2018-07-28T04:13:30.614Z,11.03
2018-07-28T04:16:00.075Z,11.57
2018-07-28T04:18:29.196Z,10.32
2018-07-28T04:20:58.125Z,10.95
2018-07-28T04:23:27.018Z,11.83
2018-07-28T04:25:55.952Z,11.85
2018-07-28T04:28:26.157Z,11.57
2018-07-28T04:30:54.975Z,11.18
2018-07-28T04:33:24.602Z,11.28
2018-07-28T04:35:53.520Z,12.18
2018-07-28T04:38:22.385Z,11.88
2018-07-28T04:40:52.395Z,12.03
2018-07-28T04:43:20.944Z,11.48
2018-07-28T04:45:50.246Z,11.15
2018-07-28T04:48:18.663Z,11.88
2018-07-28T04:50:47.108Z,12.47
2018-07-28T04:53:15.596Z,11.28
2018-07-28T04:55:44.079Z,11.43
2018-07-28T04:58:12.624Z,12.03
2018-07-28T05:00:41.440Z,11.80
2018-07-28T05:03:09.982Z,11.93
2018-07-28T05:05:38.482Z,13.08
2018-07-28T05:08:06.881Z,12.43
2018-07-28T05:10:35.466Z,11.70
2018-07-28T05:13:04.115Z,11.68
2018-07-28T05:15:32.666Z,12.18
2018-07-28T05:18:01.382Z,11.68
2018-07-28T05:20:29.806Z,12.43
2018-07-28T05:22:58.287Z,12.58
2018-07-28T05:25:26.791Z,12.47
2018-07-28T05:27:55.350Z,14.15
2018-07-28T05:30:24.224Z,13.15
2018-07-28T05:32:52.620Z,12.75
2018-07-28T05:35:21.260Z,12.00
2018-07-28T05:37:50.112Z,11.83
2018-07-28T05:40:18.601Z,15.30
2018-07-28T05:42:47.107Z,11.22
2018-07-28T05:45:15.854Z,13.50
2018-07-28T05:47:44.375Z,11.80
2018-07-28T05:50:13.035Z,10.70
2018-07-28T05:52:41.495Z,14.05
2018-07-28T05:55:10.080Z,11.83
2018-07-28T05:57:38.649Z,11.50
2018-07-28T06:00:07.815Z,11.28
2018-07-28T06:02:36.409Z,10.60
2018-07-28T06:05:05.693Z,12.85
2018-07-28T06:07:34.275Z,10.70
2018-07-28T06:10:02.921Z,11.57
2018-07-28T06:12:31.450Z,11.40
2018-07-28T06:14:59.930Z,10.95
2018-07-28T06:17:28.442Z,10.23
2018-07-28T06:19:56.975Z,9.85
2018-07-28T06:22:25.792Z,12.10
2018-07-28T06:24:54.446Z,9.83
2018-07-28T06:27:23.246Z,9.68
2018-07-28T06:29:51.732Z,12.63
2018-07-28T06:32:21.056Z,10.53
2018-07-28T06:34:49.630Z,10.82
2018-07-28T06:37:18.105Z,11.05
2018-07-28T06:39:51.807Z,10.72
2018-07-28T06:42:20.634Z,10.50
2018-07-28T06:44:49.198Z,10.65
2018-07-28T06:47:17.657Z,12.43
2018-07-28T06:49:46.234Z,10.50
2018-07-28T06:52:14.784Z,9.93
2018-07-28T06:54:43.402Z,9.88
2018-07-28T06:57:11.958Z,11.33
2018-07-28T06:59:45.560Z,10.58
2018-07-28T07:02:14.476Z,10.93
2018-07-28T07:04:42.981Z,9.93
2018-07-28T07:07:11.460Z,9.68
2018-07-28T07:09:40.058Z,10.32
2018-07-28T07:12:08.818Z,11.60
2018-07-28T07:14:37.432Z,10.80
2018-07-28T07:17:06.170Z,9.50
2018-07-28T07:19:35.133Z,11.57
2018-07-28T07:22:03.788Z,9.50
2018-07-28T07:24:32.214Z,9.08
2018-07-28T07:27:00.760Z,10.13
2018-07-28T07:29:29.246Z,9.48
2018-07-28T07:31:58.336Z,10.03
2018-07-28T07:34:26.868Z,9.90
2018-07-28T07:36:55.398Z,10.48
2018-07-28T07:39:23.881Z,10.45
2018-07-28T07:41:52.460Z,9.23
2018-07-28T07:44:21.280Z,9.50
2018-07-28T07:46:50.146Z,10.40
2018-07-28T07:49:18.624Z,11.78
2018-07-28T07:51:47.170Z,10.15
2018-07-28T07:54:16.306Z,9.83
2018-07-28T07:56:44.762Z,10.48
2018-07-28T07:59:13.388Z,11.90
2018-07-28T08:01:41.786Z,10.43
2018-07-28T08:04:10.226Z,11.90
2018-07-28T08:06:38.784Z,10.00
2018-07-28T08:09:08.893Z,9.55
2018-07-28T08:11:37.778Z,9.58
2018-07-28T08:14:07.830Z,10.10
2018-07-28T08:16:36.416Z,11.20
2018-07-28T08:19:05.405Z,11.00
2018-07-28T08:21:34.570Z,10.88
2018-07-28T08:24:03.590Z,11.35
2018-07-28T08:26:32.092Z,10.40
2018-07-28T08:29:00.846Z,11.38
2018-07-28T08:31:29.638Z,10.60
2018-07-28T08:33:58.134Z,10.90
2018-07-28T08:36:26.928Z,10.23
2018-07-28T08:38:56.574Z,9.55
2018-07-28T08:41:26.152Z,10.25
2018-07-28T08:43:54.722Z,9.65
2018-07-28T08:46:23.137Z,9.50
2018-07-28T08:51:44.754Z,9.10
2018-07-28T08:54:14.445Z,9.80
2018-07-28T08:56:43.318Z,8.98
2018-07-28T08:59:12.474Z,9.65
2018-07-28T09:01:41.473Z,9.20
2018-07-28T09:04:11.233Z,9.10
2018-07-28T09:06:40.026Z,9.88
2018-07-28T09:09:10.662Z,10.08
2018-07-28T09:11:39.654Z,9.70
2018-07-28T09:14:09.310Z,9.10
2018-07-28T09:16:38.050Z,9.53
2018-07-28T09:19:07.148Z,10.25
2018-07-28T09:21:36.538Z,8.80
2018-07-28T09:24:05.683Z,8.85
2018-07-28T09:26:34.104Z,9.03
2018-07-28T09:29:02.606Z,9.38
2018-07-28T09:31:31.182Z,9.18
2018-07-28T09:33:59.860Z,8.75
2018-07-28T09:36:28.409Z,10.10
2018-07-28T09:38:56.818Z,10.40
2018-07-28T09:41:25.722Z,8.68
2018-07-28T09:43:54.476Z,8.50
2018-07-28T09:46:23.026Z,8.50
2018-07-28T09:48:51.636Z,8.40
2018-07-28T09:51:20.164Z,8.25
2018-07-28T09:53:48.963Z,8.48
2018-07-28T09:56:17.366Z,8.05
2018-07-28T09:58:45.956Z,8.10
2018-07-28T10:01:17.550Z,7.80
2018-07-28T10:03:46.552Z,8.23
2018-07-28T10:06:15.339Z,7.80
2018-07-28T10:08:44.863Z,7.95
2018-07-28T10:11:13.556Z,8.23
2018-07-28T10:13:42.006Z,7.67
2018-07-28T10:16:10.587Z,7.67
2018-07-28T10:18:39.130Z,7.08
2018-07-28T10:21:07.880Z,7.85
2018-07-28T10:23:36.406Z,8.28
2018-07-28T10:26:04.878Z,9.60
2018-07-28T10:28:33.354Z,7.20
2018-07-28T10:31:02.038Z,6.83
2018-07-28T10:33:30.594Z,6.90
2018-07-28T10:35:59.798Z,7.35
2018-07-28T10:38:28.304Z,10.40
2018-07-28T10:40:56.846Z,8.30
2018-07-28T10:43:26.140Z,8.18
2018-07-28T10:45:54.724Z,7.35
2018-07-28T10:48:23.132Z,7.50
2018-07-28T10:50:51.821Z,6.87
2018-07-28T10:53:20.378Z,7.05
2018-07-28T10:55:48.960Z,7.53
2018-07-28T10:58:17.436Z,7.25
2018-07-28T11:00:46.538Z,6.97
2018-07-28T11:03:14.930Z,6.70
2018-07-28T11:05:43.556Z,6.80
2018-07-28T11:08:12.328Z,6.37
2018-07-28T11:10:40.848Z,6.72
2018-07-28T11:13:09.452Z,6.70
2018-07-28T11:15:38.545Z,7.65
2018-07-28T11:18:07.116Z,6.77
2018-07-28T11:20:35.694Z,6.22
2018-07-28T11:23:04.534Z,6.40
2018-07-28T11:25:33.434Z,6.03
2018-07-28T11:28:02.028Z,5.65
2018-07-28T11:30:30.440Z,6.55
2018-07-28T11:33:10.055Z,5.47
2018-07-28T11:35:49.464Z,5.87
2018-07-28T11:38:29.094Z,5.62
2018-07-28T11:41:08.982Z,5.53
2018-07-28T11:43:48.624Z,6.00
2018-07-28T11:46:17.282Z,6.17
2018-07-28T11:48:45.710Z,5.35
2018-07-28T11:51:14.794Z,6.25
2018-07-28T11:53:43.650Z,7.05
2018-07-28T11:56:12.558Z,6.60
2018-07-28T11:58:41.425Z,7.67
2018-07-28T12:01:10.332Z,7.28
2018-07-28T12:03:40.092Z,7.40
2018-07-28T12:06:08.789Z,5.33
2018-07-28T12:08:37.750Z,5.45
2018-07-28T12:11:06.871Z,5.45
2018-07-28T12:13:35.788Z,4.87
2018-07-28T12:16:04.848Z,5.47
2018-07-28T12:18:34.683Z,5.90
2018-07-28T12:21:03.079Z,6.03
2018-07-28T12:23:31.495Z,5.75
2018-07-28T12:26:00.143Z,8.03
2018-07-28T12:28:28.557Z,5.15
2018-07-28T12:30:57.118Z,5.25
2018-07-28T12:33:25.506Z,5.33
2018-07-28T12:35:53.922Z,5.42
2018-07-28T12:38:22.361Z,5.03
2018-07-28T12:40:50.989Z,6.37
2018-07-28T12:43:19.424Z,5.80
2018-07-28T12:45:48.161Z,5.50
2018-07-28T12:48:16.590Z,5.15
2018-07-28T12:50:45.026Z,5.42
2018-07-28T12:53:13.475Z,6.00
2018-07-28T12:55:41.960Z,5.30
2018-07-28T12:58:10.543Z,5.50
2018-07-28T13:00:38.926Z,6.45
2018-07-28T13:03:07.408Z,5.70
2018-07-28T13:05:35.809Z,5.30
2018-07-28T13:08:04.335Z,5.90
2018-07-28T13:10:32.800Z,5.42
2018-07-28T13:13:01.224Z,5.33
2018-07-28T13:15:29.645Z,5.17
2018-07-28T13:17:58.227Z,5.37
2018-07-28T13:20:26.596Z,5.55
2018-07-28T13:22:55.073Z,5.25
2018-07-28T13:25:23.531Z,5.20
2018-07-28T13:27:51.933Z,5.70
2018-07-28T13:30:20.501Z,7.20
2018-07-28T13:32:48.923Z,5.97
2018-07-28T13:35:17.563Z,5.53
2018-07-28T13:37:46.025Z,5.12
2018-07-28T13:40:14.483Z,5.60
2018-07-28T13:42:42.905Z,5.33
2018-07-28T13:45:11.301Z,4.97
2018-07-28T13:47:39.751Z,5.10
2018-07-28T13:50:08.188Z,5.07
2018-07-28T13:52:36.563Z,5.53
2018-07-28T13:55:05.617Z,5.65
2018-07-28T13:57:34.076Z,5.55
2018-07-28T14:00:02.486Z,5.30
2018-07-28T14:02:30.879Z,5.00
2018-07-28T14:05:00.177Z,5.33
2018-07-28T14:07:28.674Z,5.60
2018-07-28T14:09:57.386Z,6.08
2018-07-28T14:22:20.923Z,7.75
2018-07-28T14:24:49.387Z,9.60
2018-07-28T14:27:18.005Z,8.83
2018-07-28T14:29:46.609Z,8.60
2018-07-28T14:32:15.166Z,6.35
2018-07-28T14:34:44.030Z,7.20
2018-07-28T14:37:12.639Z,6.87
2018-07-28T14:39:41.181Z,6.67
2018-07-28T14:42:10.171Z,7.10
2018-07-28T14:44:38.825Z,11.05
2018-07-28T14:47:08.253Z,7.15
2018-07-28T14:49:37.228Z,6.45
2018-07-28T14:52:05.860Z,5.05
2018-07-28T14:54:34.740Z,5.95
2018-07-28T14:57:03.199Z,5.17
2018-07-28T14:59:31.754Z,6.30
2018-07-28T15:02:00.466Z,10.15
2018-07-28T15:04:29.369Z,12.30
2018-07-28T15:06:57.888Z,9.50
2018-07-28T15:09:26.486Z,6.17
2018-07-28T15:11:55.219Z,8.25
2018-07-28T15:14:23.664Z,7.50
2018-07-28T15:16:52.345Z,9.70
2018-07-28T15:19:26.115Z,7.87
2018-07-28T15:21:54.992Z,8.35
2018-07-28T15:24:23.461Z,9.83
2018-07-28T15:26:52.756Z,8.08
2018-07-28T15:29:21.351Z,7.55
2018-07-28T15:31:49.913Z,8.83
2018-07-28T15:34:18.511Z,6.30
2018-07-28T15:36:46.955Z,8.15
2018-07-28T15:39:15.589Z,8.75
2018-07-28T15:41:44.090Z,8.60
2018-07-28T15:44:12.627Z,6.83
2018-07-28T15:46:41.493Z,6.17
2018-07-28T15:49:12.802Z,7.67
2018-07-28T15:51:41.355Z,7.85
2018-07-28T15:54:09.943Z,6.20
2018-07-28T15:56:38.555Z,8.15
2018-07-28T15:59:07.311Z,7.08
2018-07-28T16:01:36.148Z,9.58
2018-07-28T16:04:04.733Z,8.13
2018-07-28T16:06:33.193Z,12.28
2018-07-28T16:09:01.813Z,6.75
2018-07-28T16:11:30.332Z,6.45
2018-07-28T16:13:58.805Z,5.53
2018-07-28T16:16:27.533Z,6.20
2018-07-28T16:18:56.294Z,7.95
2018-07-28T16:21:25.061Z,5.90
2018-07-28T16:23:53.670Z,9.35
2018-07-28T16:26:22.309Z,6.45
2018-07-28T16:28:51.464Z,11.68
2018-07-28T16:31:20.312Z,5.60
2018-07-28T16:33:49.084Z,6.95
2018-07-28T16:36:17.893Z,6.92
2018-07-28T16:38:51.423Z,9.45
2018-07-28T16:41:20.161Z,9.23
2018-07-28T16:43:49.568Z,7.65
2018-07-28T16:46:19.035Z,7.42
2018-07-28T16:48:53.665Z,6.45
2018-07-28T16:51:22.558Z,6.90
2018-07-28T16:53:52.167Z,6.70
2018-07-28T16:56:22.392Z,9.88
2018-07-28T16:58:51.134Z,6.72
2018-07-28T17:01:19.620Z,6.33
2018-07-28T17:03:48.212Z,7.87
2018-07-28T17:06:17.023Z,6.00
2018-07-28T17:08:45.657Z,5.87
2018-07-28T17:11:14.909Z,6.33
2018-07-28T17:13:43.796Z,6.53
2018-07-28T17:16:12.582Z,9.25
2018-07-28T17:18:41.083Z,6.72
2018-07-28T17:21:09.738Z,6.85
2018-07-28T17:23:38.275Z,7.15
2018-07-28T17:26:08.050Z,7.47
2018-07-28T17:28:36.657Z,6.70
2018-07-28T17:31:05.268Z,7.55
2018-07-28T17:33:33.736Z,7.62
2018-07-28T17:36:02.619Z,9.13
2018-07-28T17:38:32.481Z,7.75
2018-07-28T17:41:01.979Z,6.72
2018-07-28T17:43:30.596Z,6.08
2018-07-28T17:45:59.376Z,6.12
2018-07-28T17:48:28.316Z,8.13
2018-07-28T17:50:57.059Z,7.15
2018-07-28T17:53:26.088Z,6.25
2018-07-28T17:55:55.155Z,8.13
2018-07-28T17:58:24.889Z,6.28
2018-07-28T18:00:53.727Z,8.23
2018-07-28T18:03:22.507Z,9.03
2018-07-28T18:05:51.255Z,6.83
2018-07-28T18:08:20.137Z,8.70
2018-07-28T18:10:49.107Z,7.87
2018-07-28T18:13:18.110Z,9.50
2018-07-28T18:15:47.521Z,9.28
2018-07-28T18:18:16.260Z,8.75
2018-07-28T18:20:45.488Z,8.78
2018-07-28T18:23:14.166Z,7.20
2018-07-28T18:25:42.690Z,6.92
2018-07-28T18:28:11.253Z,8.43
2018-07-28T18:30:39.876Z,8.28
2018-07-28T18:33:09.605Z,8.25
2018-07-28T18:35:38.247Z,7.15
2018-07-28T18:38:07.076Z,8.48
2018-07-28T18:40:45.007Z,7.50
2018-07-28T18:43:13.567Z,7.42
2018-07-28T18:45:42.405Z,7.85
2018-07-28T18:48:11.159Z,6.80
2018-07-28T18:50:39.766Z,8.53
2018-07-28T18:53:08.759Z,7.97
2018-07-28T18:55:37.755Z,8.08
2018-07-28T18:58:07.000Z,8.28
2018-07-28T19:00:40.863Z,7.55
2018-07-28T19:03:09.425Z,8.83
2018-07-28T19:05:39.120Z,7.62
2018-07-28T19:08:07.708Z,8.23
2018-07-28T19:10:41.522Z,8.18
2018-07-28T19:13:15.323Z,8.53
2018-07-28T19:15:44.016Z,8.60
2018-07-28T19:18:17.961Z,8.63
2018-07-28T19:20:46.598Z,7.95
2018-07-28T19:23:20.381Z,8.08
2018-07-28T19:25:49.019Z,8.15
2018-07-28T19:28:23.033Z,7.60
2018-07-28T19:30:56.625Z,8.18
2018-07-28T19:33:25.255Z,7.60
2018-07-28T19:35:58.932Z,7.87
2018-07-28T19:38:27.810Z,9.95
2018-07-28T19:40:56.293Z,8.75
2018-07-28T19:43:25.059Z,9.78
2018-07-28T19:45:53.560Z,8.73
2018-07-28T19:48:22.533Z,9.30
2018-07-28T19:51:00.427Z,8.18
2018-07-28T19:53:29.442Z,8.88
2018-07-28T19:55:58.401Z,10.35
2018-07-28T19:58:27.071Z,8.60
2018-07-28T20:00:55.750Z,7.85
2018-07-28T20:03:24.460Z,8.30
2018-07-28T20:05:53.103Z,9.78
2018-07-28T20:08:21.783Z,8.53
2018-07-28T20:10:50.389Z,8.20
2018-07-28T20:13:20.155Z,8.05
2018-07-28T20:15:48.743Z,7.20
2018-07-28T20:20:45.811Z,10.30
2018-07-28T20:23:14.561Z,8.58
2018-07-28T20:25:45.507Z,8.20
2018-07-28T20:28:14.011Z,7.53
2018-07-28T20:30:43.662Z,10.28
2018-07-28T20:33:12.657Z,11.20
2018-07-28T20:35:41.297Z,9.70
2018-07-28T20:38:10.227Z,9.63
2018-07-28T20:40:39.035Z,8.75
2018-07-28T20:43:07.597Z,7.80
2018-07-28T20:45:36.169Z,9.90
2018-07-28T20:48:04.949Z,8.40
2018-07-28T20:50:43.037Z,7.72
2018-07-28T20:53:11.715Z,8.48
2018-07-28T20:55:40.337Z,7.87
2018-07-28T20:58:08.849Z,8.23
2018-07-28T21:00:37.719Z,8.20
2018-07-28T21:03:06.914Z,8.45
2018-07-28T21:05:35.542Z,10.70
2018-07-28T21:08:04.284Z,8.38
2018-07-28T21:10:32.981Z,8.48
2018-07-28T21:13:01.625Z,8.43
2018-07-28T21:15:30.451Z,7.95
2018-07-28T21:17:59.423Z,7.70
2018-07-28T21:20:28.094Z,7.17
2018-07-28T21:22:56.706Z,8.08
2018-07-28T21:25:25.461Z,6.90
2018-07-28T21:27:53.932Z,7.28
2018-07-28T21:30:22.730Z,6.37
2018-07-28T21:32:51.691Z,6.40
2018-07-28T21:35:20.477Z,8.20
2018-07-28T21:37:50.657Z,6.97
2018-07-28T21:40:19.555Z,8.95
2018-07-28T21:42:49.804Z,6.95
2018-07-28T21:45:19.125Z,7.03
2018-07-28T21:47:48.469Z,5.85
2018-07-28T21:50:17.458Z,5.83
2018-07-28T21:52:45.898Z,7.62
2018-07-28T21:55:14.607Z,6.03
2018-07-28T21:57:43.006Z,6.28
2018-07-28T22:00:12.005Z,6.65
2018-07-28T22:02:40.486Z,7.10
2018-07-28T22:05:09.554Z,5.55
2018-07-28T22:07:38.065Z,7.03
2018-07-28T22:10:06.751Z,6.10
2018-07-28T22:12:35.288Z,7.33
2018-07-28T22:15:03.986Z,6.03
2018-07-28T22:17:32.479Z,5.85
2018-07-28T22:20:01.081Z,4.85
2018-07-28T22:22:29.639Z,5.60
2018-07-28T22:24:58.804Z,5.08
2018-07-28T22:27:27.327Z,5.35
2018-07-28T22:30:01.292Z,4.92
2018-07-28T22:32:29.842Z,4.95
2018-07-28T22:34:58.492Z,4.97
2018-07-28T22:37:27.036Z,5.75
2018-07-28T22:39:56.344Z,6.90
2018-07-28T22:42:35.892Z,4.33
2018-07-28T22:45:05.746Z,4.87
2018-07-28T22:47:34.486Z,4.10
2018-07-28T22:50:03.650Z,4.75
2018-07-28T22:52:35.331Z,4.87
2018-07-28T22:55:05.550Z,3.70
2018-07-28T22:57:34.706Z,3.98
2018-07-28T23:00:03.557Z,3.67
2018-07-28T23:02:32.012Z,5.35
2018-07-28T23:05:01.000Z,11.73
2018-07-28T23:07:29.556Z,7.00
2018-07-28T23:09:58.276Z,6.67
2018-07-28T23:12:28.234Z,7.42
2018-07-28T23:14:56.954Z,8.40
2018-07-28T23:17:28.066Z,8.63
2018-07-28T23:19:57.525Z,8.98
2018-07-28T23:22:28.341Z,7.92
2018-07-28T23:24:57.768Z,8.85
2018-07-28T23:27:26.816Z,8.60
2018-07-28T23:29:57.184Z,8.98
2018-07-28T23:32:26.996Z,9.15
2018-07-28T23:34:57.456Z,8.18
2018-07-28T23:37:36.487Z,7.95
2018-07-28T23:40:23.964Z,9.03
2018-07-28T23:42:53.089Z,7.05
2018-07-28T23:45:22.188Z,4.60
2018-07-28T23:47:52.692Z,4.35
2018-07-28T23:50:21.661Z,4.72
2018-07-28T23:52:51.394Z,4.85
2018-07-28T23:55:21.017Z,4.97
2018-07-28T23:57:51.641Z,3.27
